Terminal Aerodrome Forecast
Issued by NWS Rapid City, SD

Home | Current Version | Previous Version | Graphics & Text | Print | Product List | Glossary On
Versions: 1 2 3 4 5 6 7 8 9 10 11 12 13 14 15 16 17 18 19
850
FTUS43 KUNR 100535
TAFRAP
TAF
KRAP 100535Z 1006/1106 32010KT P6SM SCT250 WS020/31050KT
     FM101300 32020G30KT P6SM SCT250
     FM102300 30010KT P6SM SCT150=

USA.gov is the U.S. government's official web portal to all federal, state and local government web resources and services.